sensor_id;sensor_type;location;lat;lon;timestamp;pressure;altitude;pressure_sealevel;temperature;humidity
31011;BME280;26395;53.412;19.598;2023-12-28T00:05:41;100570.61;;;3.35;91.31
31011;BME280;26395;53.412;19.598;2023-12-28T00:20:45;100561.60;;;3.29;92.15
31011;BME280;26395;53.412;19.598;2023-12-28T00:35:48;100550.84;;;3.29;92.34
31011;BME280;26395;53.412;19.598;2023-12-28T00:50:53;100519.27;;;3.19;92.24
31011;BME280;26395;53.412;19.598;2023-12-28T01:05:58;100498.79;;;3.10;93.09
31011;BME280;26395;53.412;19.598;2023-12-28T01:21:03;100497.77;;;3.00;93.16
31011;BME280;26395;53.412;19.598;2023-12-28T01:36:21;100479.45;;;2.93;92.85
31011;BME280;26395;53.412;19.598;2023-12-28T01:51:27;100435.11;;;2.86;92.72
31011;BME280;26395;53.412;19.598;2023-12-28T02:06:31;100403.25;;;2.84;94.32
31011;BME280;26395;53.412;19.598;2023-12-28T02:21:37;100373.61;;;2.92;95.81
31011;BME280;26395;53.412;19.598;2023-12-28T02:36:45;100337.11;;;2.93;97.45
31011;BME280;26395;53.412;19.598;2023-12-28T02:51:50;100315.97;;;2.97;98.48
31011;BME280;26395;53.412;19.598;2023-12-28T03:06:53;100279.20;;;3.18;98.35
31011;BME280;26395;53.412;19.598;2023-12-28T03:21:58;100251.48;;;3.25;98.99
31011;BME280;26395;53.412;19.598;2023-12-28T03:37:05;100195.52;;;3.30;98.61
31011;BME280;26395;53.412;19.598;2023-12-28T03:52:09;100160.15;;;3.29;98.82
31011;BME280;26395;53.412;19.598;2023-12-28T04:07:14;100110.59;;;3.45;98.98
31011;BME280;26395;53.412;19.598;2023-12-28T04:22:21;100057.77;;;3.47;97.96
31011;BME280;26395;53.412;19.598;2023-12-28T04:37:25;100006.14;;;3.43;97.81
31011;BME280;26395;53.412;19.598;2023-12-28T04:52:31;100002.55;;;3.54;96.00
31011;BME280;26395;53.412;19.598;2023-12-28T05:07:35;100011.37;;;3.72;94.25
31011;BME280;26395;53.412;19.598;2023-12-28T05:22:39;99958.36;;;3.63;93.50
31011;BME280;26395;53.412;19.598;2023-12-28T05:37:43;99941.11;;;3.63;93.43
31011;BME280;26395;53.412;19.598;2023-12-28T05:52:47;99941.31;;;3.73;92.53
31011;BME280;26395;53.412;19.598;2023-12-28T06:07:54;99934.77;;;3.69;92.22
31011;BME280;26395;53.412;19.598;2023-12-28T06:22:58;99872.66;;;3.59;92.43
31011;BME280;26395;53.412;19.598;2023-12-28T06:38:02;99865.92;;;3.86;92.27
31011;BME280;26395;53.412;19.598;2023-12-28T06:53:10;99859.23;;;3.88;92.58
31011;BME280;26395;53.412;19.598;2023-12-28T07:08:14;99865.27;;;4.03;92.74
31011;BME280;26395;53.412;19.598;2023-12-28T07:23:18;99886.13;;;4.25;92.27
31011;BME280;26395;53.412;19.598;2023-12-28T07:38:22;99887.30;;;4.43;91.53
31011;BME280;26395;53.412;19.598;2023-12-28T07:53:32;99891.41;;;4.49;92.68
31011;BME280;26395;53.412;19.598;2023-12-28T08:08:36;99876.71;;;4.79;92.50
31011;BME280;26395;53.412;19.598;2023-12-28T08:23:40;99901.52;;;5.06;91.98
31011;BME280;26395;53.412;19.598;2023-12-28T08:38:45;99898.78;;;5.25;92.32
31011;BME280;26395;53.412;19.598;2023-12-28T08:53:49;99916.23;;;5.57;92.02
31011;BME280;26395;53.412;19.598;2023-12-28T09:08:53;99932.87;;;5.67;92.62
31011;BME280;26395;53.412;19.598;2023-12-28T09:23:58;99912.77;;;5.79;94.20
31011;BME280;26395;53.412;19.598;2023-12-28T09:39:02;99909.17;;;5.85;95.89
31011;BME280;26395;53.412;19.598;2023-12-28T09:54:10;99916.39;;;6.14;97.02
31011;BME280;26395;53.412;19.598;2023-12-28T10:09:16;99924.48;;;6.36;96.76
31011;BME280;26395;53.412;19.598;2023-12-28T10:24:20;99915.61;;;6.52;97.20
31011;BME280;26395;53.412;19.598;2023-12-28T10:39:26;99908.04;;;6.70;97.59
31011;BME280;26395;53.412;19.598;2023-12-28T10:54:46;99909.48;;;6.87;98.06
31011;BME280;26395;53.412;19.598;2023-12-28T11:09:51;99910.61;;;7.08;98.21
31011;BME280;26395;53.412;19.598;2023-12-28T11:24:56;99904.54;;;7.36;97.60
31011;BME280;26395;53.412;19.598;2023-12-28T11:40:22;99893.79;;;7.49;97.25
31011;BME280;26395;53.412;19.598;2023-12-28T11:55:27;99885.77;;;7.64;97.11
31011;BME280;26395;53.412;19.598;2023-12-28T12:10:31;99886.70;;;7.78;97.61
31011;BME280;26395;53.412;19.598;2023-12-28T12:25:35;99878.93;;;8.07;97.18
31011;BME280;26395;53.412;19.598;2023-12-28T12:40:39;99871.75;;;8.20;96.87
31011;BME280;26395;53.412;19.598;2023-12-28T12:55:46;99868.73;;;8.33;96.77
31011;BME280;26395;53.412;19.598;2023-12-28T13:10:51;99871.91;;;8.37;96.55
31011;BME280;26395;53.412;19.598;2023-12-28T13:25:57;99863.59;;;8.03;96.92
31011;BME280;26395;53.412;19.598;2023-12-28T13:41:04;99874.27;;;7.96;96.91
31011;BME280;26395;53.412;19.598;2023-12-28T13:56:09;99881.19;;;7.92;96.91
31011;BME280;26395;53.412;19.598;2023-12-28T14:11:13;99883.14;;;7.69;97.31
31011;BME280;26395;53.412;19.598;2023-12-28T14:26:17;99892.84;;;7.54;97.84
31011;BME280;26395;53.412;19.598;2023-12-28T14:41:23;99866.00;;;7.20;97.79
31011;BME280;26395;53.412;19.598;2023-12-28T14:56:28;99830.73;;;7.05;98.28
31011;BME280;26395;53.412;19.598;2023-12-28T15:11:47;99845.11;;;7.03;98.05
31011;BME280;26395;53.412;19.598;2023-12-28T15:26:51;99868.44;;;6.85;97.47
31011;BME280;26395;53.412;19.598;2023-12-28T15:41:55;99880.20;;;6.72;97.95
31011;BME280;26395;53.412;19.598;2023-12-28T15:56:59;99873.53;;;6.82;99.12
31011;BME280;26395;53.412;19.598;2023-12-28T16:12:04;99865.92;;;6.99;99.08
31011;BME280;26395;53.412;19.598;2023-12-28T16:27:17;99862.30;;;6.99;98.94
31011;BME280;26395;53.412;19.598;2023-12-28T16:42:27;99865.25;;;6.86;98.05
31011;BME280;26395;53.412;19.598;2023-12-28T16:57:31;99870.27;;;6.73;97.77
31011;BME280;26395;53.412;19.598;2023-12-28T17:12:40;99868.95;;;6.60;98.05
31011;BME280;26395;53.412;19.598;2023-12-28T17:27:55;99870.36;;;6.62;99.19
31011;BME280;26395;53.412;19.598;2023-12-28T17:43:15;99868.02;;;6.75;98.56
31011;BME280;26395;53.412;19.598;2023-12-28T17:58:19;99866.11;;;6.66;99.39
31011;BME280;26395;53.412;19.598;2023-12-28T18:13:24;99869.92;;;6.66;99.25
31011;BME280;26395;53.412;19.598;2023-12-28T18:28:28;99869.81;;;6.58;99.17
31011;BME280;26395;53.412;19.598;2023-12-28T18:43:33;99865.36;;;6.66;99.60
31011;BME280;26395;53.412;19.598;2023-12-28T18:58:39;99855.31;;;6.77;99.64
31011;BME280;26395;53.412;19.598;2023-12-28T19:13:43;99841.11;;;6.92;99.93
31011;BME280;26395;53.412;19.598;2023-12-28T19:28:50;99839.02;;;7.16;99.80
31011;BME280;26395;53.412;19.598;2023-12-28T19:43:54;99845.95;;;7.44;98.59
31011;BME280;26395;53.412;19.598;2023-12-28T19:58:59;99839.29;;;7.73;98.57
31011;BME280;26395;53.412;19.598;2023-12-28T20:14:04;99829.91;;;7.91;98.09
31011;BME280;26395;53.412;19.598;2023-12-28T20:29:10;99828.27;;;8.29;97.40
31011;BME280;26395;53.412;19.598;2023-12-28T20:44:17;99833.01;;;8.56;96.15
31011;BME280;26395;53.412;19.598;2023-12-28T20:59:23;99831.09;;;8.70;94.87
31011;BME280;26395;53.412;19.598;2023-12-28T21:14:27;99829.93;;;8.75;93.92
31011;BME280;26395;53.412;19.598;2023-12-28T21:29:31;99836.20;;;8.85;92.60
31011;BME280;26395;53.412;19.598;2023-12-28T21:44:38;99838.89;;;8.84;91.93
31011;BME280;26395;53.412;19.598;2023-12-28T21:59:47;99822.20;;;8.90;90.99
31011;BME280;26395;53.412;19.598;2023-12-28T22:14:51;99811.40;;;8.94;90.30
31011;BME280;26395;53.412;19.598;2023-12-28T22:29:56;99814.37;;;8.98;89.61
31011;BME280;26395;53.412;19.598;2023-12-28T22:45:01;99813.73;;;8.99;89.31
31011;BME280;26395;53.412;19.598;2023-12-28T23:00:07;99807.80;;;8.97;88.79
31011;BME280;26395;53.412;19.598;2023-12-28T23:15:20;99808.98;;;8.99;88.75
31011;BME280;26395;53.412;19.598;2023-12-28T23:30:23;99796.05;;;8.90;89.14
31011;BME280;26395;53.412;19.598;2023-12-28T23:45:29;99790.16;;;8.87;89.55
